sensor_id;sensor_type;location;lat;lon;timestamp;P1;durP1;ratioP1;P2;durP2;ratioP2
18612;SDS011;9436;52.152;21.032;2022-12-20T00:00:03;39.07;;;22.77;;
18612;SDS011;9436;52.152;21.032;2022-12-20T00:02:31;40.60;;;23.87;;
18612;SDS011;9436;52.152;21.032;2022-12-20T00:04:58;38.40;;;23.40;;
18612;SDS011;9436;52.152;21.032;2022-12-20T00:07:25;40.53;;;23.37;;
18612;SDS011;9436;52.152;21.032;2022-12-20T00:09:53;36.20;;;22.40;;
18612;SDS011;9436;52.152;21.032;2022-12-20T00:12:22;35.50;;;21.77;;
18612;SDS011;9436;52.152;21.032;2022-12-20T00:14:48;36.10;;;22.10;;
18612;SDS011;9436;52.152;21.032;2022-12-20T00:17:15;37.17;;;22.23;;
18612;SDS011;9436;52.152;21.032;2022-12-20T00:19:42;37.57;;;22.63;;
18612;SDS011;9436;52.152;21.032;2022-12-20T00:22:08;34.90;;;21.70;;
18612;SDS011;9436;52.152;21.032;2022-12-20T00:24:35;38.20;;;22.63;;
18612;SDS011;9436;52.152;21.032;2022-12-20T00:27:02;35.97;;;23.37;;
18612;SDS011;9436;52.152;21.032;2022-12-20T00:29:30;35.93;;;22.43;;
18612;SDS011;9436;52.152;21.032;2022-12-20T00:31:57;37.77;;;22.17;;
18612;SDS011;9436;52.152;21.032;2022-12-20T00:34:23;35.83;;;21.40;;
18612;SDS011;9436;52.152;21.032;2022-12-20T00:36:50;35.93;;;21.97;;
18612;SDS011;9436;52.152;21.032;2022-12-20T00:39:16;35.73;;;22.63;;
18612;SDS011;9436;52.152;21.032;2022-12-20T00:41:43;34.93;;;20.97;;
18612;SDS011;9436;52.152;21.032;2022-12-20T00:44:09;35.23;;;21.80;;
18612;SDS011;9436;52.152;21.032;2022-12-20T00:46:37;33.70;;;21.13;;
18612;SDS011;9436;52.152;21.032;2022-12-20T00:49:04;33.90;;;21.23;;
18612;SDS011;9436;52.152;21.032;2022-12-20T00:51:31;37.70;;;22.33;;
18612;SDS011;9436;52.152;21.032;2022-12-20T00:53:58;38.80;;;22.63;;
18612;SDS011;9436;52.152;21.032;2022-12-20T00:56:24;37.03;;;21.53;;
18612;SDS011;9436;52.152;21.032;2022-12-20T00:58:51;34.73;;;21.83;;
18612;SDS011;9436;52.152;21.032;2022-12-20T01:01:20;37.30;;;22.43;;
18612;SDS011;9436;52.152;21.032;2022-12-20T01:03:49;36.63;;;21.90;;
18612;SDS011;9436;52.152;21.032;2022-12-20T01:06:17;34.73;;;21.87;;
18612;SDS011;9436;52.152;21.032;2022-12-20T01:08:44;35.47;;;22.60;;
18612;SDS011;9436;52.152;21.032;2022-12-20T01:11:12;32.93;;;21.47;;
18612;SDS011;9436;52.152;21.032;2022-12-20T01:13:42;34.80;;;21.97;;
18612;SDS011;9436;52.152;21.032;2022-12-20T01:16:12;34.27;;;21.27;;
18612;SDS011;9436;52.152;21.032;2022-12-20T01:18:40;33.47;;;21.10;;
18612;SDS011;9436;52.152;21.032;2022-12-20T01:21:08;35.10;;;22.33;;
18612;SDS011;9436;52.152;21.032;2022-12-20T01:23:36;32.90;;;20.53;;
18612;SDS011;9436;52.152;21.032;2022-12-20T01:26:04;33.60;;;21.63;;
18612;SDS011;9436;52.152;21.032;2022-12-20T01:28:33;30.90;;;20.37;;
18612;SDS011;9436;52.152;21.032;2022-12-20T01:31:01;35.10;;;22.13;;
18612;SDS011;9436;52.152;21.032;2022-12-20T01:33:27;34.20;;;21.67;;
18612;SDS011;9436;52.152;21.032;2022-12-20T01:35:54;31.77;;;20.23;;
18612;SDS011;9436;52.152;21.032;2022-12-20T01:38:23;29.80;;;19.80;;
18612;SDS011;9436;52.152;21.032;2022-12-20T01:40:50;29.93;;;19.87;;
18612;SDS011;9436;52.152;21.032;2022-12-20T01:43:17;32.70;;;20.60;;
18612;SDS011;9436;52.152;21.032;2022-12-20T01:45:44;31.57;;;20.87;;
18612;SDS011;9436;52.152;21.032;2022-12-20T01:48:12;32.60;;;20.53;;
18612;SDS011;9436;52.152;21.032;2022-12-20T01:50:43;31.73;;;20.23;;
18612;SDS011;9436;52.152;21.032;2022-12-20T01:53:10;30.67;;;20.27;;
18612;SDS011;9436;52.152;21.032;2022-12-20T01:55:38;31.63;;;19.60;;
18612;SDS011;9436;52.152;21.032;2022-12-20T01:58:05;33.47;;;20.53;;
18612;SDS011;9436;52.152;21.032;2022-12-20T02:00:34;31.63;;;20.20;;
18612;SDS011;9436;52.152;21.032;2022-12-20T02:03:02;31.20;;;19.93;;
18612;SDS011;9436;52.152;21.032;2022-12-20T02:05:37;29.87;;;19.50;;
18612;SDS011;9436;52.152;21.032;2022-12-20T02:08:05;29.17;;;19.80;;
18612;SDS011;9436;52.152;21.032;2022-12-20T02:10:34;32.57;;;20.57;;
18612;SDS011;9436;52.152;21.032;2022-12-20T02:13:14;34.47;;;20.77;;
18612;SDS011;9436;52.152;21.032;2022-12-20T02:15:50;30.63;;;20.23;;
18612;SDS011;9436;52.152;21.032;2022-12-20T02:18:21;32.77;;;19.70;;
18612;SDS011;9436;52.152;21.032;2022-12-20T02:23:40;31.10;;;20.53;;
18612;SDS011;9436;52.152;21.032;2022-12-20T02:26:22;30.60;;;18.97;;
18612;SDS011;9436;52.152;21.032;2022-12-20T02:29:07;28.73;;;18.33;;
18612;SDS011;9436;52.152;21.032;2022-12-20T02:31:48;28.13;;;18.77;;
18612;SDS011;9436;52.152;21.032;2022-12-20T02:34:21;30.10;;;18.17;;
18612;SDS011;9436;52.152;21.032;2022-12-20T02:36:49;30.77;;;18.00;;
18612;SDS011;9436;52.152;21.032;2022-12-20T02:39:16;30.27;;;18.50;;
18612;SDS011;9436;52.152;21.032;2022-12-20T02:41:45;30.93;;;19.53;;
18612;SDS011;9436;52.152;21.032;2022-12-20T02:44:16;26.60;;;18.17;;
18612;SDS011;9436;52.152;21.032;2022-12-20T02:46:49;28.80;;;18.07;;
18612;SDS011;9436;52.152;21.032;2022-12-20T02:49:17;29.17;;;17.93;;
18612;SDS011;9436;52.152;21.032;2022-12-20T02:51:47;27.60;;;18.57;;
18612;SDS011;9436;52.152;21.032;2022-12-20T02:54:16;29.43;;;18.50;;
18612;SDS011;9436;52.152;21.032;2022-12-20T02:56:44;27.23;;;18.20;;
18612;SDS011;9436;52.152;21.032;2022-12-20T02:59:17;28.07;;;17.53;;
18612;SDS011;9436;52.152;21.032;2022-12-20T03:01:47;24.90;;;16.70;;
18612;SDS011;9436;52.152;21.032;2022-12-20T03:04:19;28.37;;;17.70;;
18612;SDS011;9436;52.152;21.032;2022-12-20T03:09:20;28.00;;;17.17;;
18612;SDS011;9436;52.152;21.032;2022-12-20T03:11:47;27.73;;;16.93;;
18612;SDS011;9436;52.152;21.032;2022-12-20T03:14:14;23.67;;;16.60;;
18612;SDS011;9436;52.152;21.032;2022-12-20T03:16:40;28.50;;;17.53;;
18612;SDS011;9436;52.152;21.032;2022-12-20T03:19:08;25.07;;;16.93;;
18612;SDS011;9436;52.152;21.032;2022-12-20T03:21:35;25.37;;;16.10;;
18612;SDS011;9436;52.152;21.032;2022-12-20T03:24:02;27.40;;;17.47;;
18612;SDS011;9436;52.152;21.032;2022-12-20T03:26:30;26.03;;;16.93;;
18612;SDS011;9436;52.152;21.032;2022-12-20T03:28:58;26.57;;;17.87;;
18612;SDS011;9436;52.152;21.032;2022-12-20T03:31:24;23.27;;;16.17;;
18612;SDS011;9436;52.152;21.032;2022-12-20T03:33:51;25.80;;;16.90;;
18612;SDS011;9436;52.152;21.032;2022-12-20T03:36:21;23.40;;;15.77;;
18612;SDS011;9436;52.152;21.032;2022-12-20T03:38:48;25.37;;;16.53;;
18612;SDS011;9436;52.152;21.032;2022-12-20T03:41:14;25.20;;;16.23;;
18612;SDS011;9436;52.152;21.032;2022-12-20T03:43:41;26.00;;;16.70;;
18612;SDS011;9436;52.152;21.032;2022-12-20T03:46:08;25.73;;;16.80;;
18612;SDS011;9436;52.152;21.032;2022-12-20T03:48:35;22.70;;;15.50;;
18612;SDS011;9436;52.152;21.032;2022-12-20T03:51:02;24.77;;;16.23;;
18612;SDS011;9436;52.152;21.032;2022-12-20T03:53:31;22.97;;;15.93;;
18612;SDS011;9436;52.152;21.032;2022-12-20T03:55:58;24.60;;;16.70;;
18612;SDS011;9436;52.152;21.032;2022-12-20T03:58:26;25.40;;;16.43;;
18612;SDS011;9436;52.152;21.032;2022-12-20T04:00:55;23.40;;;16.40;;
18612;SDS011;9436;52.152;21.032;2022-12-20T04:03:23;25.73;;;16.10;;
18612;SDS011;9436;52.152;21.032;2022-12-20T04:05:50;27.00;;;16.50;;
18612;SDS011;9436;52.152;21.032;2022-12-20T04:08:17;25.27;;;16.70;;
18612;SDS011;9436;52.152;21.032;2022-12-20T04:10:46;23.93;;;15.87;;
18612;SDS011;9436;52.152;21.032;2022-12-20T04:13:15;23.60;;;15.80;;
18612;SDS011;9436;52.152;21.032;2022-12-20T04:15:43;23.73;;;16.20;;
18612;SDS011;9436;52.152;21.032;2022-12-20T04:18:09;23.53;;;15.30;;
18612;SDS011;9436;52.152;21.032;2022-12-20T04:20:36;25.40;;;16.50;;
18612;SDS011;9436;52.152;21.032;2022-12-20T04:23:02;22.60;;;15.83;;
18612;SDS011;9436;52.152;21.032;2022-12-20T04:25:30;25.50;;;15.83;;
18612;SDS011;9436;52.152;21.032;2022-12-20T04:28:00;24.63;;;16.10;;
18612;SDS011;9436;52.152;21.032;2022-12-20T04:30:26;25.10;;;15.90;;
18612;SDS011;9436;52.152;21.032;2022-12-20T04:32:53;25.13;;;16.13;;
18612;SDS011;9436;52.152;21.032;2022-12-20T04:35:19;24.43;;;16.00;;
18612;SDS011;9436;52.152;21.032;2022-12-20T04:37:46;23.83;;;16.07;;
18612;SDS011;9436;52.152;21.032;2022-12-20T04:40:12;24.73;;;16.40;;
18612;SDS011;9436;52.152;21.032;2022-12-20T04:42:39;22.83;;;15.70;;
18612;SDS011;9436;52.152;21.032;2022-12-20T04:45:07;25.80;;;15.87;;
18612;SDS011;9436;52.152;21.032;2022-12-20T04:47:34;25.33;;;16.57;;
18612;SDS011;9436;52.152;21.032;2022-12-20T04:50:00;24.43;;;15.43;;
18612;SDS011;9436;52.152;21.032;2022-12-20T04:52:27;24.13;;;15.13;;
18612;SDS011;9436;52.152;21.032;2022-12-20T04:54:55;23.37;;;15.50;;
18612;SDS011;9436;52.152;21.032;2022-12-20T04:57:22;25.90;;;16.50;;
18612;SDS011;9436;52.152;21.032;2022-12-20T04:59:48;26.87;;;16.03;;
18612;SDS011;9436;52.152;21.032;2022-12-20T05:02:16;26.13;;;15.73;;
18612;SDS011;9436;52.152;21.032;2022-12-20T05:04:43;26.30;;;16.00;;
18612;SDS011;9436;52.152;21.032;2022-12-20T05:07:09;24.53;;;15.80;;
18612;SDS011;9436;52.152;21.032;2022-12-20T05:09:36;24.93;;;16.00;;
18612;SDS011;9436;52.152;21.032;2022-12-20T05:12:02;22.73;;;15.03;;
18612;SDS011;9436;52.152;21.032;2022-12-20T05:14:29;27.90;;;16.00;;
18612;SDS011;9436;52.152;21.032;2022-12-20T05:16:56;25.53;;;15.77;;
18612;SDS011;9436;52.152;21.032;2022-12-20T05:19:23;25.27;;;15.87;;
18612;SDS011;9436;52.152;21.032;2022-12-20T05:21:50;24.20;;;15.07;;
18612;SDS011;9436;52.152;21.032;2022-12-20T05:24:19;25.47;;;14.87;;
18612;SDS011;9436;52.152;21.032;2022-12-20T05:26:47;23.33;;;15.53;;
18612;SDS011;9436;52.152;21.032;2022-12-20T05:29:15;22.40;;;14.40;;
18612;SDS011;9436;52.152;21.032;2022-12-20T05:31:41;22.13;;;14.53;;
18612;SDS011;9436;52.152;21.032;2022-12-20T05:34:08;24.63;;;14.93;;
18612;SDS011;9436;52.152;21.032;2022-12-20T05:36:36;25.57;;;15.57;;
18612;SDS011;9436;52.152;21.032;2022-12-20T05:39:02;22.23;;;14.60;;
18612;SDS011;9436;52.152;21.032;2022-12-20T05:41:30;24.07;;;15.43;;
18612;SDS011;9436;52.152;21.032;2022-12-20T05:43:57;22.07;;;14.47;;
18612;SDS011;9436;52.152;21.032;2022-12-20T05:46:23;22.10;;;13.90;;
18612;SDS011;9436;52.152;21.032;2022-12-20T05:48:51;23.80;;;14.30;;
18612;SDS011;9436;52.152;21.032;2022-12-20T05:51:17;25.10;;;14.53;;
18612;SDS011;9436;52.152;21.032;2022-12-20T05:53:45;24.40;;;15.00;;
18612;SDS011;9436;52.152;21.032;2022-12-20T05:56:12;22.70;;;13.67;;
18612;SDS011;9436;52.152;21.032;2022-12-20T05:58:38;19.77;;;13.87;;
18612;SDS011;9436;52.152;21.032;2022-12-20T06:01:06;20.83;;;14.37;;
18612;SDS011;9436;52.152;21.032;2022-12-20T06:03:35;21.23;;;13.77;;
18612;SDS011;9436;52.152;21.032;2022-12-20T06:06:02;19.10;;;12.93;;
18612;SDS011;9436;52.152;21.032;2022-12-20T06:08:31;21.37;;;14.17;;
18612;SDS011;9436;52.152;21.032;2022-12-20T06:11:01;21.40;;;13.23;;
18612;SDS011;9436;52.152;21.032;2022-12-20T06:13:31;20.53;;;13.57;;
18612;SDS011;9436;52.152;21.032;2022-12-20T06:15:59;21.77;;;13.53;;
18612;SDS011;9436;52.152;21.032;2022-12-20T06:18:25;18.90;;;13.50;;
18612;SDS011;9436;52.152;21.032;2022-12-20T06:20:53;19.47;;;12.50;;
18612;SDS011;9436;52.152;21.032;2022-12-20T06:23:21;21.27;;;13.10;;
18612;SDS011;9436;52.152;21.032;2022-12-20T06:25:47;20.60;;;13.57;;
18612;SDS011;9436;52.152;21.032;2022-12-20T06:28:15;19.30;;;12.80;;
18612;SDS011;9436;52.152;21.032;2022-12-20T06:30:50;20.63;;;13.10;;
18612;SDS011;9436;52.152;21.032;2022-12-20T06:33:18;20.60;;;13.23;;
18612;SDS011;9436;52.152;21.032;2022-12-20T06:35:48;18.80;;;12.50;;
18612;SDS011;9436;52.152;21.032;2022-12-20T06:38:14;21.70;;;13.53;;
18612;SDS011;9436;52.152;21.032;2022-12-20T06:40:41;19.40;;;13.20;;
18612;SDS011;9436;52.152;21.032;2022-12-20T06:43:09;20.07;;;13.43;;
18612;SDS011;9436;52.152;21.032;2022-12-20T06:45:36;18.17;;;12.57;;
18612;SDS011;9436;52.152;21.032;2022-12-20T06:48:03;20.97;;;12.57;;
18612;SDS011;9436;52.152;21.032;2022-12-20T06:50:30;18.90;;;11.67;;
18612;SDS011;9436;52.152;21.032;2022-12-20T06:52:57;19.00;;;12.73;;
18612;SDS011;9436;52.152;21.032;2022-12-20T06:55:24;18.83;;;12.97;;
18612;SDS011;9436;52.152;21.032;2022-12-20T06:57:50;18.87;;;12.80;;
18612;SDS011;9436;52.152;21.032;2022-12-20T07:00:17;18.27;;;12.87;;
18612;SDS011;9436;52.152;21.032;2022-12-20T07:02:46;18.47;;;13.30;;
18612;SDS011;9436;52.152;21.032;2022-12-20T07:05:12;18.13;;;12.13;;
18612;SDS011;9436;52.152;21.032;2022-12-20T07:07:39;18.80;;;12.77;;
18612;SDS011;9436;52.152;21.032;2022-12-20T07:10:06;21.10;;;13.13;;
18612;SDS011;9436;52.152;21.032;2022-12-20T07:12:33;17.13;;;12.60;;
18612;SDS011;9436;52.152;21.032;2022-12-20T07:15:00;19.93;;;12.93;;
18612;SDS011;9436;52.152;21.032;2022-12-20T07:17:27;19.57;;;12.90;;
18612;SDS011;9436;52.152;21.032;2022-12-20T07:19:56;18.10;;;12.90;;
18612;SDS011;9436;52.152;21.032;2022-12-20T07:22:22;19.37;;;11.50;;
18612;SDS011;9436;52.152;21.032;2022-12-20T07:24:49;17.27;;;11.97;;
18612;SDS011;9436;52.152;21.032;2022-12-20T07:27:16;19.90;;;13.00;;
18612;SDS011;9436;52.152;21.032;2022-12-20T07:29:42;20.80;;;12.97;;
18612;SDS011;9436;52.152;21.032;2022-12-20T07:32:10;20.23;;;12.70;;
18612;SDS011;9436;52.152;21.032;2022-12-20T07:34:38;16.07;;;11.83;;
18612;SDS011;9436;52.152;21.032;2022-12-20T07:37:07;18.63;;;13.00;;
18612;SDS011;9436;52.152;21.032;2022-12-20T07:39:34;19.27;;;12.37;;
18612;SDS011;9436;52.152;21.032;2022-12-20T07:42:00;18.87;;;12.63;;
18612;SDS011;9436;52.152;21.032;2022-12-20T07:44:27;18.17;;;12.80;;
18612;SDS011;9436;52.152;21.032;2022-12-20T07:46:54;17.20;;;12.63;;
18612;SDS011;9436;52.152;21.032;2022-12-20T07:49:21;21.03;;;13.17;;
18612;SDS011;9436;52.152;21.032;2022-12-20T07:51:49;17.80;;;12.47;;
18612;SDS011;9436;52.152;21.032;2022-12-20T07:54:21;20.30;;;13.30;;
18612;SDS011;9436;52.152;21.032;2022-12-20T07:56:53;18.30;;;13.03;;
18612;SDS011;9436;52.152;21.032;2022-12-20T07:59:23;19.57;;;12.43;;
18612;SDS011;9436;52.152;21.032;2022-12-20T08:01:54;21.47;;;14.17;;
18612;SDS011;9436;52.152;21.032;2022-12-20T08:04:24;19.20;;;13.07;;
18612;SDS011;9436;52.152;21.032;2022-12-20T08:06:53;18.67;;;13.27;;
18612;SDS011;9436;52.152;21.032;2022-12-20T08:09:25;22.73;;;13.07;;
18612;SDS011;9436;52.152;21.032;2022-12-20T08:11:57;20.13;;;13.43;;
18612;SDS011;9436;52.152;21.032;2022-12-20T08:14:25;19.73;;;13.67;;
18612;SDS011;9436;52.152;21.032;2022-12-20T08:16:53;21.60;;;13.40;;
18612;SDS011;9436;52.152;21.032;2022-12-20T08:19:19;20.10;;;14.27;;
18612;SDS011;9436;52.152;21.032;2022-12-20T08:21:46;21.93;;;14.40;;
18612;SDS011;9436;52.152;21.032;2022-12-20T08:24:14;20.43;;;13.93;;
18612;SDS011;9436;52.152;21.032;2022-12-20T08:26:44;19.83;;;14.23;;
18612;SDS011;9436;52.152;21.032;2022-12-20T08:29:11;22.83;;;14.00;;
18612;SDS011;9436;52.152;21.032;2022-12-20T08:31:38;20.77;;;14.00;;
18612;SDS011;9436;52.152;21.032;2022-12-20T08:34:07;22.20;;;14.60;;
18612;SDS011;9436;52.152;21.032;2022-12-20T08:36:35;20.37;;;14.37;;
18612;SDS011;9436;52.152;21.032;2022-12-20T08:39:03;20.80;;;14.80;;
18612;SDS011;9436;52.152;21.032;2022-12-20T08:41:30;21.10;;;14.37;;
18612;SDS011;9436;52.152;21.032;2022-12-20T08:44:00;21.80;;;14.33;;
18612;SDS011;9436;52.152;21.032;2022-12-20T08:46:26;22.87;;;14.53;;
18612;SDS011;9436;52.152;21.032;2022-12-20T08:48:53;22.10;;;15.00;;
18612;SDS011;9436;52.152;21.032;2022-12-20T08:51:20;23.10;;;14.70;;
18612;SDS011;9436;52.152;21.032;2022-12-20T08:53:47;23.87;;;15.20;;
18612;SDS011;9436;52.152;21.032;2022-12-20T08:56:14;21.03;;;14.27;;
18612;SDS011;9436;52.152;21.032;2022-12-20T08:58:44;21.87;;;15.10;;
18612;SDS011;9436;52.152;21.032;2022-12-20T09:01:13;22.80;;;15.53;;
18612;SDS011;9436;52.152;21.032;2022-12-20T09:03:42;22.30;;;14.70;;
18612;SDS011;9436;52.152;21.032;2022-12-20T09:06:11;22.07;;;14.83;;
18612;SDS011;9436;52.152;21.032;2022-12-20T09:08:40;25.97;;;15.67;;
18612;SDS011;9436;52.152;21.032;2022-12-20T09:11:08;23.00;;;14.30;;
18612;SDS011;9436;52.152;21.032;2022-12-20T09:13:37;23.27;;;14.83;;
18612;SDS011;9436;52.152;21.032;2022-12-20T09:16:04;23.00;;;15.17;;
18612;SDS011;9436;52.152;21.032;2022-12-20T09:18:34;20.57;;;14.47;;
18612;SDS011;9436;52.152;21.032;2022-12-20T09:21:02;21.47;;;15.30;;
18612;SDS011;9436;52.152;21.032;2022-12-20T09:23:32;24.27;;;15.73;;
18612;SDS011;9436;52.152;21.032;2022-12-20T09:26:01;22.33;;;15.13;;
18612;SDS011;9436;52.152;21.032;2022-12-20T09:28:31;22.97;;;14.83;;
18612;SDS011;9436;52.152;21.032;2022-12-20T09:30:59;22.90;;;15.87;;
18612;SDS011;9436;52.152;21.032;2022-12-20T09:33:27;35.30;;;14.10;;
18612;SDS011;9436;52.152;21.032;2022-12-20T09:35:58;23.80;;;15.23;;
18612;SDS011;9436;52.152;21.032;2022-12-20T09:38:25;23.47;;;16.20;;
18612;SDS011;9436;52.152;21.032;2022-12-20T09:40:54;23.63;;;16.83;;
18612;SDS011;9436;52.152;21.032;2022-12-20T09:43:23;25.00;;;16.03;;
18612;SDS011;9436;52.152;21.032;2022-12-20T09:45:50;23.63;;;15.47;;
18612;SDS011;9436;52.152;21.032;2022-12-20T09:48:21;24.53;;;16.80;;
18612;SDS011;9436;52.152;21.032;2022-12-20T09:50:52;23.87;;;16.57;;
18612;SDS011;9436;52.152;21.032;2022-12-20T09:53:31;22.33;;;16.00;;
18612;SDS011;9436;52.152;21.032;2022-12-20T09:56:06;23.33;;;16.37;;
18612;SDS011;9436;52.152;21.032;2022-12-20T09:58:42;23.43;;;16.03;;
18612;SDS011;9436;52.152;21.032;2022-12-20T10:01:23;23.77;;;16.37;;
18612;SDS011;9436;52.152;21.032;2022-12-20T10:03:53;24.87;;;17.13;;
18612;SDS011;9436;52.152;21.032;2022-12-20T10:06:25;26.33;;;19.10;;
18612;SDS011;9436;52.152;21.032;2022-12-20T10:09:02;24.00;;;16.37;;
18612;SDS011;9436;52.152;21.032;2022-12-20T10:11:34;25.47;;;16.77;;
18612;SDS011;9436;52.152;21.032;2022-12-20T10:14:13;22.37;;;16.33;;
18612;SDS011;9436;52.152;21.032;2022-12-20T10:16:54;25.73;;;17.10;;
18612;SDS011;9436;52.152;21.032;2022-12-20T10:19:29;27.23;;;17.50;;
18612;SDS011;9436;52.152;21.032;2022-12-20T10:22:18;24.97;;;16.63;;
18612;SDS011;9436;52.152;21.032;2022-12-20T10:24:53;23.40;;;16.77;;
18612;SDS011;9436;52.152;21.032;2022-12-20T10:27:25;26.40;;;17.27;;
18612;SDS011;9436;52.152;21.032;2022-12-20T10:29:53;26.40;;;17.80;;
18612;SDS011;9436;52.152;21.032;2022-12-20T10:32:21;26.43;;;17.60;;
18612;SDS011;9436;52.152;21.032;2022-12-20T10:34:53;27.67;;;17.23;;
18612;SDS011;9436;52.152;21.032;2022-12-20T10:37:23;26.80;;;17.80;;
18612;SDS011;9436;52.152;21.032;2022-12-20T10:39:53;25.27;;;18.00;;
18612;SDS011;9436;52.152;21.032;2022-12-20T10:42:23;24.57;;;16.87;;
18612;SDS011;9436;52.152;21.032;2022-12-20T10:44:55;23.93;;;17.03;;
18612;SDS011;9436;52.152;21.032;2022-12-20T10:47:29;27.03;;;18.67;;
18612;SDS011;9436;52.152;21.032;2022-12-20T10:52:39;25.03;;;17.93;;
18612;SDS011;9436;52.152;21.032;2022-12-20T10:57:45;28.73;;;18.90;;
18612;SDS011;9436;52.152;21.032;2022-12-20T11:00:15;28.83;;;18.03;;
18612;SDS011;9436;52.152;21.032;2022-12-20T11:03:01;27.37;;;19.17;;
18612;SDS011;9436;52.152;21.032;2022-12-20T11:05:35;27.03;;;18.87;;
18612;SDS011;9436;52.152;21.032;2022-12-20T11:08:08;29.13;;;19.20;;
18612;SDS011;9436;52.152;21.032;2022-12-20T11:10:41;28.27;;;19.67;;
18612;SDS011;9436;52.152;21.032;2022-12-20T11:13:20;26.87;;;19.20;;
18612;SDS011;9436;52.152;21.032;2022-12-20T11:15:50;27.83;;;18.77;;
18612;SDS011;9436;52.152;21.032;2022-12-20T11:18:22;26.17;;;18.30;;
18612;SDS011;9436;52.152;21.032;2022-12-20T11:20:56;25.50;;;18.60;;
18612;SDS011;9436;52.152;21.032;2022-12-20T11:23:37;26.77;;;18.40;;
18612;SDS011;9436;52.152;21.032;2022-12-20T11:26:11;24.63;;;16.70;;
18612;SDS011;9436;52.152;21.032;2022-12-20T11:28:57;27.50;;;18.20;;
18612;SDS011;9436;52.152;21.032;2022-12-20T11:31:35;30.23;;;19.03;;
18612;SDS011;9436;52.152;21.032;2022-12-20T11:34:14;28.57;;;19.23;;
18612;SDS011;9436;52.152;21.032;2022-12-20T11:36:54;27.67;;;18.80;;
18612;SDS011;9436;52.152;21.032;2022-12-20T11:39:44;29.13;;;18.30;;
18612;SDS011;9436;52.152;21.032;2022-12-20T11:42:24;26.53;;;17.90;;
18612;SDS011;9436;52.152;21.032;2022-12-20T11:45:04;27.17;;;18.13;;
18612;SDS011;9436;52.152;21.032;2022-12-20T11:47:43;28.47;;;19.03;;
18612;SDS011;9436;52.152;21.032;2022-12-20T11:50:33;27.53;;;18.77;;
18612;SDS011;9436;52.152;21.032;2022-12-20T11:53:09;28.90;;;19.67;;
18612;SDS011;9436;52.152;21.032;2022-12-20T11:55:43;27.57;;;18.10;;
18612;SDS011;9436;52.152;21.032;2022-12-20T11:58:14;28.73;;;19.10;;
18612;SDS011;9436;52.152;21.032;2022-12-20T12:00:49;26.50;;;19.37;;
18612;SDS011;9436;52.152;21.032;2022-12-20T12:03:22;30.23;;;20.00;;
18612;SDS011;9436;52.152;21.032;2022-12-20T12:05:55;27.77;;;19.37;;
18612;SDS011;9436;52.152;21.032;2022-12-20T12:08:27;27.97;;;19.50;;
18612;SDS011;9436;52.152;21.032;2022-12-20T12:11:00;28.30;;;18.53;;
18612;SDS011;9436;52.152;21.032;2022-12-20T12:13:32;30.73;;;19.43;;
18612;SDS011;9436;52.152;21.032;2022-12-20T12:16:05;28.90;;;19.80;;
18612;SDS011;9436;52.152;21.032;2022-12-20T12:18:37;26.60;;;18.50;;
18612;SDS011;9436;52.152;21.032;2022-12-20T12:21:07;30.37;;;20.00;;
18612;SDS011;9436;52.152;21.032;2022-12-20T12:23:38;29.00;;;19.17;;
18612;SDS011;9436;52.152;21.032;2022-12-20T12:26:14;29.23;;;18.87;;
18612;SDS011;9436;52.152;21.032;2022-12-20T12:28:46;28.37;;;18.30;;
18612;SDS011;9436;52.152;21.032;2022-12-20T12:31:22;29.30;;;19.33;;
18612;SDS011;9436;52.152;21.032;2022-12-20T12:33:59;28.73;;;18.97;;
18612;SDS011;9436;52.152;21.032;2022-12-20T12:36:37;29.63;;;20.13;;
18612;SDS011;9436;52.152;21.032;2022-12-20T12:39:24;30.23;;;19.27;;
18612;SDS011;9436;52.152;21.032;2022-12-20T12:44:44;27.90;;;19.47;;
18612;SDS011;9436;52.152;21.032;2022-12-20T12:47:18;29.77;;;18.97;;
18612;SDS011;9436;52.152;21.032;2022-12-20T12:49:49;30.37;;;19.17;;
18612;SDS011;9436;52.152;21.032;2022-12-20T12:52:25;31.07;;;20.73;;
18612;SDS011;9436;52.152;21.032;2022-12-20T12:55:00;27.70;;;19.30;;
18612;SDS011;9436;52.152;21.032;2022-12-20T12:57:27;29.63;;;19.60;;
18612;SDS011;9436;52.152;21.032;2022-12-20T12:59:54;28.53;;;19.47;;
18612;SDS011;9436;52.152;21.032;2022-12-20T13:02:31;29.20;;;19.97;;
18612;SDS011;9436;52.152;21.032;2022-12-20T13:05:25;30.40;;;19.50;;
18612;SDS011;9436;52.152;21.032;2022-12-20T13:08:06;28.50;;;20.37;;
18612;SDS011;9436;52.152;21.032;2022-12-20T13:13:19;29.17;;;19.30;;
18612;SDS011;9436;52.152;21.032;2022-12-20T13:15:51;30.20;;;20.93;;
18612;SDS011;9436;52.152;21.032;2022-12-20T13:18:32;32.77;;;20.53;;
18612;SDS011;9436;52.152;21.032;2022-12-20T13:23:33;29.97;;;19.40;;
18612;SDS011;9436;52.152;21.032;2022-12-20T13:26:01;35.63;;;22.33;;
18612;SDS011;9436;52.152;21.032;2022-12-20T13:28:52;32.47;;;21.63;;
18612;SDS011;9436;52.152;21.032;2022-12-20T13:34:19;31.07;;;19.93;;
18612;SDS011;9436;52.152;21.032;2022-12-20T13:39:50;33.77;;;22.83;;
18612;SDS011;9436;52.152;21.032;2022-12-20T13:42:21;32.37;;;21.53;;
18612;SDS011;9436;52.152;21.032;2022-12-20T13:45:00;31.23;;;21.50;;
18612;SDS011;9436;52.152;21.032;2022-12-20T13:47:33;30.80;;;21.40;;
18612;SDS011;9436;52.152;21.032;2022-12-20T13:52:50;29.97;;;20.77;;
18612;SDS011;9436;52.152;21.032;2022-12-20T13:55:25;31.00;;;21.40;;
18612;SDS011;9436;52.152;21.032;2022-12-20T13:57:55;30.33;;;20.80;;
18612;SDS011;9436;52.152;21.032;2022-12-20T14:00:24;32.37;;;21.57;;
18612;SDS011;9436;52.152;21.032;2022-12-20T14:13:00;32.57;;;21.93;;
18612;SDS011;9436;52.152;21.032;2022-12-20T14:15:29;34.20;;;22.23;;
18612;SDS011;9436;52.152;21.032;2022-12-20T14:18:03;30.57;;;19.93;;
18612;SDS011;9436;52.152;21.032;2022-12-20T14:20:33;30.50;;;19.83;;
18612;SDS011;9436;52.152;21.032;2022-12-20T14:23:03;32.47;;;21.13;;
18612;SDS011;9436;52.152;21.032;2022-12-20T14:25:37;31.73;;;20.73;;
18612;SDS011;9436;52.152;21.032;2022-12-20T14:28:14;30.30;;;20.67;;
18612;SDS011;9436;52.152;21.032;2022-12-20T14:30:49;28.63;;;19.87;;
18612;SDS011;9436;52.152;21.032;2022-12-20T14:33:18;32.30;;;21.33;;
18612;SDS011;9436;52.152;21.032;2022-12-20T14:35:46;33.67;;;21.93;;
18612;SDS011;9436;52.152;21.032;2022-12-20T14:38:19;30.30;;;21.67;;
18612;SDS011;9436;52.152;21.032;2022-12-20T14:40:48;32.40;;;21.23;;
18612;SDS011;9436;52.152;21.032;2022-12-20T14:43:23;32.47;;;22.20;;
18612;SDS011;9436;52.152;21.032;2022-12-20T14:48:28;33.47;;;22.10;;
18612;SDS011;9436;52.152;21.032;2022-12-20T14:50:56;33.67;;;21.77;;
18612;SDS011;9436;52.152;21.032;2022-12-20T14:53:24;33.63;;;21.80;;
18612;SDS011;9436;52.152;21.032;2022-12-20T14:55:52;30.67;;;21.53;;
18612;SDS011;9436;52.152;21.032;2022-12-20T14:58:23;28.97;;;20.93;;
18612;SDS011;9436;52.152;21.032;2022-12-20T15:00:54;32.30;;;21.40;;
18612;SDS011;9436;52.152;21.032;2022-12-20T15:03:24;31.97;;;21.20;;
18612;SDS011;9436;52.152;21.032;2022-12-20T15:05:53;31.10;;;21.77;;
18612;SDS011;9436;52.152;21.032;2022-12-20T15:08:23;31.30;;;20.53;;
18612;SDS011;9436;52.152;21.032;2022-12-20T15:10:54;31.17;;;22.10;;
18612;SDS011;9436;52.152;21.032;2022-12-20T15:13:27;31.10;;;20.77;;
18612;SDS011;9436;52.152;21.032;2022-12-20T15:15:58;32.60;;;22.07;;